»·PEaware :: SWA1776 KSNA-KHOU

SWA1776 :: KSNA-KHOU

FLIGHT INFORMATION

Flight Status: Arrived
Operator:
Southwest Airlines
More flights by this operator :: More flights under this callsign
Pilot: Drew L. (13237)
Aircraft: BOEING 737-800
(B738)
More flights by this aircraft type
Origin: KSNA John Wayne-Orange Co
United States
Destination: KHOU Hobby
United States
More flights between these airports :: More routes between these airports
Route: STAYY1 CNERY BLH KA21M SSO ELP J2 FST J138 SAT BELLR3
File this flight plan on PilotEdge
Remarks: PBN / A1B1C1D1S1S2 DOF / 180512 REG / N806SB EET / KZAB0029 KZHU0145 OPR / SWA PER / C RMK / TCAS SIMBRIEF
Altitude:
(Current/Filed)
35,000ft
Speed:
(Current/Filed)
462kts
Departed: 11-May-18 08:51 PM
Arrived: 11-May-18 11:42 PM
Distance/Time
Traveled:
1176nm/2:51
Distance/Time
To Go:
Arrived

Flight Plot

Page will automatically refresh every two minutes.

Flight plan parsing failed; only flown route is shown


Map Options




Map Legend


Flown Route
Filed Route
Departure Airport
Arrival Airport
Navaid (VOR, NDB)
Fix

Horizontal Profiles

Position Reports

Time Latitude Longitude Heading Altitude Ground
Speed
11-May-18 20:32 33.676750 -117.864005 117 63ft 0kts
11-May-18 20:33 33.676750 -117.864005 117 63ft 0kts
11-May-18 20:34 33.676750 -117.864005 117 63ft 0kts
11-May-18 20:35 33.676750 -117.864005 117 63ft 0kts
11-May-18 20:36 33.676750 -117.864005 117 63ft 0kts
11-May-18 20:37 33.676750 -117.864005 117 63ft 0kts
11-May-18 20:38 33.676750 -117.864005 117 63ft 0kts
11-May-18 20:39 33.676750 -117.864005 117 63ft 0kts
11-May-18 20:40 33.676750 -117.864005 117 63ft 0kts
11-May-18 20:41 33.676750 -117.864005 117 63ft 0kts
11-May-18 20:42 33.676750 -117.864005 117 63ft 0kts
11-May-18 20:43 33.676750 -117.864005 117 63ft 0kts
11-May-18 20:44 33.676750 -117.864006 117 64ft 0kts
11-May-18 20:45 33.676844 -117.864358 86 64ft 2kts
11-May-18 20:46 33.676649 -117.864851 28 63ft 1kts
11-May-18 20:47 33.676599 -117.864880 27 63ft 0kts
11-May-18 20:48 33.676825 -117.864738 27 63ft 4kts
11-May-18 20:49 33.679500 -117.863035 26 63ft 16kts
11-May-18 20:50 33.681432 -117.865181 210 63ft 0kts
11-May-18 20:51 33.667305 -117.874208 207 132ft 162kts
11-May-18 20:52 33.625854 -117.888450 188 2155ft 173kts
11-May-18 20:53 33.577390 -117.894486 171 3783ft 204kts
11-May-18 20:54 33.516873 -117.867415 153 6000ft 263kts
11-May-18 20:55 33.478730 -117.794763 115 8792ft 294kts
11-May-18 20:56 33.476565 -117.699923 58 10893ft 338kts
11-May-18 20:57 33.524043 -117.603645 56 13633ft 354kts
11-May-18 20:58 33.569215 -117.502847 73 16130ft 372kts
11-May-18 20:59 33.551969 -117.383946 111 18491ft 387kts
11-May-18 21:00 33.517723 -117.274544 112 20483ft 399kts
11-May-18 21:01 33.501157 -117.155620 90 22269ft 412kts
11-May-18 21:02 33.499220 -117.020120 91 24040ft 424kts
11-May-18 21:03 33.496911 -116.893840 91 25482ft 435kts
11-May-18 21:04 33.495497 -116.750718 90 26910ft 447kts
11-May-18 21:05 33.493806 -116.600597 90 28239ft 459kts
11-May-18 21:06 33.491817 -116.446840 90 29600ft 466kts
11-May-18 21:07 33.489654 -116.293573 91 31074ft 465kts
11-May-18 21:08 33.487600 -116.156186 91 32252ft 464kts
11-May-18 21:09 33.492772 -116.003166 71 33381ft 462kts
11-May-18 21:10 33.535731 -115.858091 68 34442ft 461kts
11-May-18 21:11 33.579144 -115.711321 68 34713ft 480kts
11-May-18 21:12 33.617842 -115.555260 87 34720ft 500kts
11-May-18 21:13 33.614182 -115.388120 92 34696ft 500kts
11-May-18 21:14 33.609770 -115.239518 92 34684ft 501kts
11-May-18 21:15 33.605168 -115.073529 92 34722ft 498kts
11-May-18 21:16 33.600798 -114.908592 92 34722ft 493kts
11-May-18 21:17 33.596303 -114.744111 95 34721ft 495kts
11-May-18 21:18 33.575263 -114.581833 100 34728ft 493kts
11-May-18 21:19 33.554054 -114.419520 99 34728ft 494kts
11-May-18 21:20 33.536218 -114.279973 100 34721ft 492kts
11-May-18 21:21 33.519801 -114.150006 100 34724ft 493kts
11-May-18 21:22 33.499358 -113.987938 102 34723ft 493kts
11-May-18 21:23 33.459006 -113.835115 110 34727ft 490kts
11-May-18 21:24 33.416155 -113.681183 110 34746ft 490kts
11-May-18 21:25 33.373449 -113.526766 110 34793ft 491kts
11-May-18 21:26 33.330880 -113.372110 109 34803ft 490kts
11-May-18 21:27 33.300093 -113.259692 110 34797ft 490kts
11-May-18 21:28 33.275581 -113.169973 110 34793ft 490kts
11-May-18 21:29 33.236136 -113.025176 110 34788ft 491kts
11-May-18 21:30 33.195857 -112.876623 109 34779ft 485kts
11-May-18 21:31 33.156660 -112.731419 109 34772ft 484kts
11-May-18 21:32 33.115702 -112.579016 109 34763ft 485kts
11-May-18 21:33 33.075239 -112.427767 108 34765ft 481kts
11-May-18 21:34 33.039093 -112.291984 108 34760ft 478kts
11-May-18 21:35 33.001151 -112.148861 108 34790ft 475kts
11-May-18 21:36 32.961794 -111.999799 108 34822ft 472kts
11-May-18 21:37 32.922519 -111.852396 107 34826ft 472kts
11-May-18 21:38 32.884923 -111.706802 107 34827ft 472kts
11-May-18 21:39 32.847008 -111.561109 107 34829ft 472kts
11-May-18 21:40 32.808460 -111.412455 107 34845ft 472kts
11-May-18 21:41 32.770058 -111.263623 107 34853ft 472kts
11-May-18 21:42 32.731851 -111.114896 107 34852ft 472kts
11-May-18 21:43 32.693258 -110.966443 106 34856ft 470kts
11-May-18 21:44 32.656165 -110.818680 106 34861ft 468kts
11-May-18 21:45 32.618789 -110.670909 106 34891ft 469kts
11-May-18 21:46 32.581603 -110.523526 106 34900ft 468kts
11-May-18 21:47 32.544459 -110.375665 105 34901ft 468kts
11-May-18 21:48 32.507753 -110.228807 106 34881ft 468kts
11-May-18 21:49 32.471124 -110.081645 106 34872ft 468kts
11-May-18 21:50 32.434476 -109.933784 105 34874ft 469kts
11-May-18 21:51 32.398053 -109.786193 105 34874ft 468kts
11-May-18 21:52 32.361733 -109.638387 105 34873ft 468kts
11-May-18 21:53 32.325520 -109.490401 105 34874ft 468kts
11-May-18 21:54 32.289765 -109.343705 105 34898ft 468kts
11-May-18 21:55 32.259591 -109.194854 99 34925ft 468kts
11-May-18 21:56 32.236956 -109.044337 100 34961ft 467kts
11-May-18 21:57 32.212776 -108.893810 100 35019ft 467kts
11-May-18 21:58 32.188611 -108.743642 100 35068ft 467kts
11-May-18 21:59 32.164534 -108.593024 100 35074ft 466kts
11-May-18 22:00 32.141377 -108.447128 99 35076ft 468kts
11-May-18 22:01 32.119028 -108.305247 100 35054ft 467kts
11-May-18 22:02 32.095603 -108.155415 100 35023ft 468kts
11-May-18 22:03 32.072198 -108.004648 99 34986ft 468kts
11-May-18 22:04 32.052840 -107.879154 99 34981ft 467kts
11-May-18 22:05 32.029798 -107.728727 99 34983ft 468kts
11-May-18 22:06 32.006952 -107.578367 99 34984ft 467kts
11-May-18 22:07 31.984243 -107.427845 99 34992ft 468kts
11-May-18 22:08 31.961900 -107.278565 99 35017ft 468kts
11-May-18 22:09 31.939617 -107.128530 99 35018ft 467kts
11-May-18 22:10 31.917420 -106.978046 99 35016ft 469kts
11-May-18 22:11 31.895752 -106.829995 99 34983ft 474kts
11-May-18 22:12 31.873530 -106.677107 99 34964ft 474kts
11-May-18 22:13 31.851523 -106.524651 99 34956ft 473kts
11-May-18 22:14 31.829694 -106.372238 99 34955ft 473kts
11-May-18 22:15 31.803634 -106.221257 107 34970ft 473kts
11-May-18 22:16 31.765805 -106.074902 107 34966ft 467kts
11-May-18 22:17 31.728674 -105.928719 106 34968ft 468kts
11-May-18 22:18 31.691848 -105.782594 106 34970ft 468kts
11-May-18 22:19 31.654997 -105.635686 106 34973ft 469kts
11-May-18 22:20 31.618460 -105.489405 106 34973ft 467kts
11-May-18 22:21 31.582219 -105.344626 107 34975ft 468kts
11-May-18 22:22 31.543688 -105.198913 108 34923ft 468kts
11-May-18 22:23 31.504334 -105.054261 108 34888ft 468kts
11-May-18 22:24 31.464667 -104.908609 108 34890ft 472kts
11-May-18 22:25 31.424951 -104.762255 108 34890ft 471kts
11-May-18 22:26 31.385410 -104.615953 107 34892ft 472kts
11-May-18 22:27 31.346079 -104.469818 107 34900ft 472kts
11-May-18 22:28 31.307070 -104.324271 108 34897ft 472kts
11-May-18 22:29 31.268109 -104.178211 108 34898ft 472kts
11-May-18 22:30 31.229269 -104.032079 107 34899ft 472kts
11-May-18 22:31 31.190602 -103.886030 107 34900ft 472kts
11-May-18 22:32 31.151960 -103.739473 107 34900ft 472kts
11-May-18 22:33 31.113607 -103.593431 107 34902ft 472kts
11-May-18 22:34 31.075393 -103.447343 107 34901ft 472kts
11-May-18 22:35 31.037272 -103.301008 107 34910ft 472kts
11-May-18 22:36 30.999033 -103.153544 107 34927ft 479kts
11-May-18 22:37 30.960775 -103.005026 108 34927ft 481kts
11-May-18 22:38 30.921804 -102.855657 108 34927ft 483kts
11-May-18 22:39 30.882603 -102.708669 108 34929ft 486kts
11-May-18 22:40 30.842258 -102.558393 108 34930ft 487kts
11-May-18 22:41 30.802098 -102.408464 108 34931ft 486kts
11-May-18 22:42 30.762261 -102.259076 109 34924ft 486kts
11-May-18 22:43 30.722531 -102.109482 108 34954ft 486kts
11-May-18 22:44 30.682809 -101.959393 108 34991ft 486kts
11-May-18 22:45 30.643345 -101.809696 108 34992ft 486kts
11-May-18 22:46 30.604032 -101.659998 108 34993ft 486kts
11-May-18 22:47 30.564714 -101.509705 108 34995ft 486kts
11-May-18 22:48 30.525648 -101.359834 108 34996ft 487kts
11-May-18 22:49 30.485833 -101.210762 109 34989ft 486kts
11-May-18 22:50 30.443611 -101.061921 110 34989ft 486kts
11-May-18 22:51 30.401151 -100.914122 109 35007ft 485kts
11-May-18 22:52 30.358796 -100.766430 109 35029ft 483kts
11-May-18 22:53 30.316747 -100.619253 109 35030ft 483kts
11-May-18 22:54 30.274778 -100.471818 109 35039ft 483kts
11-May-18 22:55 30.234128 -100.328464 109 35058ft 483kts
11-May-18 22:56 30.195306 -100.190906 109 35062ft 483kts
11-May-18 22:57 30.153889 -100.043732 109 35062ft 483kts
11-May-18 22:58 30.112647 -99.896674 109 35055ft 483kts
11-May-18 22:59 30.071517 -99.749479 109 35049ft 483kts
11-May-18 23:00 30.030638 -99.602655 108 35024ft 483kts
11-May-18 23:01 29.989810 -99.455513 108 35041ft 483kts
11-May-18 23:02 29.949041 -99.308041 109 35041ft 483kts
11-May-18 23:03 29.905635 -99.162373 114 35052ft 482kts
11-May-18 23:04 29.852809 -99.021805 114 35045ft 481kts
11-May-18 23:05 29.803508 -98.889639 114 35045ft 478kts
11-May-18 23:06 29.759244 -98.770427 113 35040ft 478kts
11-May-18 23:07 29.708532 -98.633465 113 35030ft 478kts
11-May-18 23:08 29.658292 -98.497455 113 35030ft 478kts
11-May-18 23:09 29.626565 -98.351063 99 35034ft 479kts
11-May-18 23:10 29.604581 -98.205409 100 35025ft 479kts
11-May-18 23:11 29.581701 -98.055272 100 35023ft 479kts
11-May-18 23:12 29.558665 -97.905547 100 35019ft 479kts
11-May-18 23:13 29.535376 -97.755504 100 35026ft 479kts
11-May-18 23:14 29.511828 -97.605076 100 35031ft 479kts
11-May-18 23:15 29.488191 -97.455315 100 35038ft 479kts
11-May-18 23:16 29.464650 -97.307374 100 33016ft 483kts
11-May-18 23:17 29.442819 -97.171123 99 30472ft 474kts
11-May-18 23:18 29.419446 -97.025626 101 27730ft 472kts
11-May-18 23:19 29.400726 -96.879718 97 25037ft 477kts
11-May-18 23:20 29.386997 -96.730051 97 22288ft 476kts
11-May-18 23:21 29.373363 -96.586095 97 19472ft 438kts
11-May-18 23:22 29.360719 -96.455462 97 17797ft 384kts
11-May-18 23:23 29.350146 -96.346525 98 17632ft 316kts
11-May-18 23:24 29.340935 -96.253125 98 16310ft 304kts
11-May-18 23:25 29.331560 -96.159011 97 14850ft 297kts
11-May-18 23:26 29.334785 -96.072887 60 13465ft 294kts
11-May-18 23:27 29.383589 -96.000546 52 12114ft 288kts
11-May-18 23:28 29.432735 -95.929898 52 10779ft 282kts
11-May-18 23:29 29.478098 -95.863152 55 9737ft 264kts
11-May-18 23:30 29.518621 -95.796920 56 8036ft 260kts
11-May-18 23:31 29.558911 -95.730811 56 7073ft 253kts
11-May-18 23:32 29.594321 -95.672666 56 6596ft 215kts
11-May-18 23:33 29.626684 -95.617811 60 5570ft 210kts
11-May-18 23:34 29.666522 -95.574675 41 4520ft 196kts
11-May-18 23:35 29.705918 -95.534550 50 3331ft 192kts
11-May-18 23:36 29.726530 -95.481279 71 3058ft 189kts
11-May-18 23:37 29.743096 -95.427101 85 2621ft 179kts
11-May-18 23:38 29.729495 -95.378267 135 2088ft 169kts
11-May-18 23:39 29.699108 -95.342747 134 1474ft 149kts
11-May-18 23:40 29.670652 -95.308719 134 657ft 147kts
11-May-18 23:41 29.643409 -95.276561 134 52ft 110kts
11-May-18 23:42 29.640796 -95.271113 313 52ft 25kts
11-May-18 23:43 29.647354 -95.275141 357 51ft 29kts
11-May-18 23:44 29.652327 -95.275746 14 52ft 0kts

Navigation Log

Ident Type
Flight plan parsing failed, navigation log unavailable